createdAt,value
2023-05-11T00:00:52.531Z,12.00
2023-05-11T00:03:19.296Z,14.30
2023-05-11T00:05:49.517Z,15.50
2023-05-11T00:08:17.335Z,13.10
2023-05-11T00:10:47.893Z,14.70
2023-05-11T00:13:14.634Z,14.60
2023-05-11T00:15:41.706Z,15.60
2023-05-11T00:18:08.477Z,14.50
2023-05-11T00:20:35.230Z,13.80
2023-05-11T00:23:02.557Z,14.30
2023-05-11T00:25:29.230Z,17.30
2023-05-11T00:27:55.841Z,18.90
2023-05-11T00:30:22.632Z,18.30
2023-05-11T00:32:52.236Z,22.40
2023-05-11T00:35:19.056Z,22.00
2023-05-11T00:37:45.989Z,21.60
2023-05-11T00:40:13.007Z,26.60
2023-05-11T00:42:40.417Z,21.30
2023-05-11T00:45:07.461Z,19.30
2023-05-11T00:47:34.095Z,16.70
2023-05-11T00:50:00.841Z,19.80
2023-05-11T00:52:27.450Z,24.30
2023-05-11T00:54:54.183Z,27.30
2023-05-11T00:57:21.461Z,25.70
2023-05-11T00:59:49.408Z,19.60
2023-05-11T01:02:16.155Z,21.00
2023-05-11T01:04:42.867Z,28.30
2023-05-11T01:07:15.855Z,27.10
2023-05-11T01:09:51.665Z,30.70
2023-05-11T01:12:34.786Z,28.90
2023-05-11T01:15:09.200Z,24.60
2023-05-11T01:18:08.264Z,24.70
2023-05-11T01:20:35.042Z,25.60
2023-05-11T01:23:15.318Z,25.40
2023-05-11T01:26:11.572Z,20.90
2023-05-11T01:29:17.019Z,19.20
2023-05-11T01:31:46.913Z,19.90
2023-05-11T01:34:17.687Z,19.00
2023-05-11T01:36:51.810Z,18.20
2023-05-11T01:39:26.824Z,22.40
2023-05-11T01:41:54.439Z,19.80
2023-05-11T01:44:21.302Z,20.60
2023-05-11T01:46:47.885Z,19.90
2023-05-11T01:49:14.470Z,23.00
2023-05-11T01:51:41.073Z,24.50
2023-05-11T01:54:08.651Z,25.20
2023-05-11T01:59:02.138Z,24.10
2023-05-11T02:01:29.213Z,23.00
2023-05-11T02:03:55.918Z,26.90
2023-05-11T02:06:22.709Z,29.20
2023-05-11T02:08:49.649Z,26.10
2023-05-11T02:11:16.305Z,22.00
2023-05-11T02:13:44.655Z,26.50
2023-05-11T02:16:11.468Z,21.80
2023-05-11T02:18:41.492Z,21.20
2023-05-11T02:21:09.131Z,24.50
2023-05-11T02:23:36.802Z,26.20
2023-05-11T02:26:03.986Z,22.00
2023-05-11T02:28:30.571Z,20.10
2023-05-11T02:31:00.527Z,20.70
2023-05-11T02:33:31.237Z,21.80
2023-05-11T02:35:57.929Z,17.70
2023-05-11T02:38:30.797Z,21.80
2023-05-11T02:40:59.039Z,26.70
2023-05-11T02:43:26.132Z,23.60
2023-05-11T02:46:00.778Z,23.70
2023-05-11T02:48:29.173Z,24.10
2023-05-11T02:50:56.323Z,20.30
2023-05-11T02:53:26.299Z,22.40
2023-05-11T02:55:53.613Z,24.00
2023-05-11T02:58:20.577Z,27.00
2023-05-11T03:00:50.440Z,23.40
2023-05-11T03:03:17.397Z,23.60
2023-05-11T03:05:44.246Z,21.30
2023-05-11T03:08:10.831Z,25.60
2023-05-11T03:10:37.621Z,22.80
2023-05-11T03:13:04.232Z,23.30
2023-05-11T03:15:31.234Z,21.90
2023-05-11T03:17:59.222Z,23.30
2023-05-11T03:20:25.872Z,23.30
2023-05-11T03:22:52.510Z,22.70
2023-05-11T03:25:19.422Z,24.90
2023-05-11T03:27:46.431Z,25.60
2023-05-11T03:32:43.342Z,25.00
2023-05-11T03:35:10.024Z,27.50
2023-05-11T03:37:38.304Z,27.40
2023-05-11T03:40:06.671Z,29.10
2023-05-11T03:42:39.146Z,26.20
2023-05-11T03:45:06.912Z,29.00
2023-05-11T03:47:33.679Z,21.70
2023-05-11T03:50:01.032Z,24.90
2023-05-11T03:52:27.670Z,23.90
2023-05-11T03:54:54.367Z,24.60
2023-05-11T03:57:21.020Z,22.80
2023-05-11T03:59:47.776Z,23.20
2023-05-11T04:02:14.464Z,33.50
2023-05-11T04:04:41.212Z,27.00
2023-05-11T04:07:07.966Z,23.70
2023-05-11T04:09:34.754Z,24.10
2023-05-11T04:12:01.344Z,27.50
2023-05-11T04:14:28.529Z,22.70
2023-05-11T04:16:55.155Z,24.60
2023-05-11T04:19:21.756Z,25.40
2023-05-11T04:21:48.356Z,25.00
2023-05-11T04:24:15.006Z,26.50
2023-05-11T04:26:41.651Z,24.10
2023-05-11T04:29:09.786Z,22.60
2023-05-11T04:31:36.502Z,22.90
2023-05-11T04:34:07.363Z,21.90
2023-05-11T04:36:34.940Z,25.60
2023-05-11T04:39:01.808Z,22.50
2023-05-11T04:41:28.655Z,20.10
2023-05-11T04:43:57.819Z,22.40
2023-05-11T04:46:24.526Z,23.40
2023-05-11T04:48:51.377Z,20.80
2023-05-11T04:51:18.029Z,21.00
2023-05-11T04:53:45.028Z,26.80
2023-05-11T04:56:12.616Z,21.00
2023-05-11T05:01:05.986Z,18.60
2023-05-11T05:03:32.634Z,15.20
2023-05-11T05:05:59.269Z,17.20
2023-05-11T05:08:26.036Z,17.30
2023-05-11T05:10:52.683Z,19.20
2023-05-11T05:13:19.613Z,17.50
2023-05-11T05:15:46.316Z,17.20
2023-05-11T05:18:14.295Z,16.40
2023-05-11T05:20:42.974Z,15.20
2023-05-11T05:23:09.582Z,13.00
2023-05-11T05:25:36.155Z,12.70
2023-05-11T05:28:02.752Z,13.30
2023-05-11T05:30:29.801Z,14.70
2023-05-11T05:32:56.786Z,13.80
2023-05-11T05:35:24.885Z,12.50
2023-05-11T05:37:51.648Z,15.70
2023-05-11T05:40:18.634Z,10.50
2023-05-11T05:42:48.104Z,13.40
2023-05-11T05:45:19.249Z,8.90
2023-05-11T05:47:46.461Z,10.40
2023-05-11T05:50:13.883Z,9.80
2023-05-11T05:55:08.898Z,10.20
2023-05-11T05:57:35.918Z,6.90
2023-05-11T06:00:03.556Z,11.90
2023-05-11T06:02:39.631Z,7.90
2023-05-11T06:05:07.715Z,10.40
2023-05-11T06:07:34.472Z,9.30
2023-05-11T06:10:01.106Z,9.20
2023-05-11T06:12:28.961Z,8.70
2023-05-11T06:14:55.787Z,7.80
2023-05-11T06:17:22.695Z,10.90
2023-05-11T06:19:50.119Z,12.30
2023-05-11T06:22:17.114Z,11.30
2023-05-11T06:24:43.766Z,8.00
2023-05-11T06:27:10.538Z,6.60
2023-05-11T06:29:38.216Z,7.80
2023-05-11T06:32:06.261Z,7.60
2023-05-11T06:34:33.486Z,7.90
2023-05-11T06:37:01.102Z,8.60
2023-05-11T06:39:27.776Z,4.90
2023-05-11T06:41:56.305Z,6.20
2023-05-11T06:44:23.912Z,5.30
2023-05-11T06:46:52.752Z,6.80
2023-05-11T06:49:19.589Z,6.40
2023-05-11T06:51:46.344Z,4.80
2023-05-11T06:54:12.922Z,10.20
2023-05-11T06:56:39.657Z,8.40
2023-05-11T06:59:06.914Z,6.60
2023-05-11T07:01:33.647Z,5.40
2023-05-11T07:04:00.628Z,6.00
2023-05-11T07:06:27.814Z,6.80
2023-05-11T07:08:54.482Z,9.00
2023-05-11T07:11:22.448Z,4.70
2023-05-11T07:13:49.273Z,5.20
2023-05-11T07:16:16.137Z,9.10
2023-05-11T07:18:42.905Z,5.70
2023-05-11T07:21:09.649Z,8.40
2023-05-11T07:23:36.270Z,6.70
2023-05-11T07:26:08.852Z,6.40
2023-05-11T07:28:38.533Z,6.70
2023-05-11T07:31:05.435Z,7.10
2023-05-11T07:33:34.684Z,6.60
2023-05-11T07:36:01.436Z,7.10
2023-05-11T07:38:28.159Z,4.10
2023-05-11T07:40:54.797Z,6.90
2023-05-11T07:43:21.401Z,9.30
2023-05-11T07:45:48.098Z,5.30
2023-05-11T07:48:15.190Z,8.10
2023-05-11T07:50:42.734Z,5.20
2023-05-11T07:53:09.651Z,7.60
2023-05-11T07:55:36.518Z,4.00
2023-05-11T07:58:03.143Z,5.50
2023-05-11T08:00:29.774Z,6.40
2023-05-11T08:02:56.884Z,7.40
2023-05-11T08:05:23.986Z,7.80
2023-05-11T08:07:50.849Z,7.10
2023-05-11T08:10:17.652Z,4.60
2023-05-11T08:12:44.306Z,5.70
2023-05-11T08:15:11.643Z,3.90
2023-05-11T08:17:38.433Z,5.60
2023-05-11T08:20:06.775Z,4.30
2023-05-11T08:22:33.485Z,9.60
2023-05-11T08:25:00.212Z,6.00
2023-05-11T08:27:26.800Z,8.70
2023-05-11T08:29:53.410Z,6.00
2023-05-11T08:32:20.018Z,4.30
2023-05-11T08:34:46.938Z,4.60
2023-05-11T08:37:13.752Z,5.00
2023-05-11T08:39:47.228Z,4.50
2023-05-11T08:42:18.044Z,4.20
2023-05-11T08:44:44.712Z,7.70
2023-05-11T08:47:22.685Z,8.80
2023-05-11T08:49:52.630Z,6.70
2023-05-11T08:52:19.352Z,5.70
2023-05-11T08:54:47.149Z,4.30
2023-05-11T08:57:14.135Z,4.40
2023-05-11T08:59:42.215Z,4.80
2023-05-11T09:02:10.846Z,6.50
2023-05-11T09:04:37.558Z,6.90
2023-05-11T09:07:04.344Z,3.40
2023-05-11T09:09:31.218Z,4.20
2023-05-11T09:11:58.798Z,3.70
2023-05-11T09:16:54.716Z,3.30
2023-05-11T09:19:21.924Z,3.30
2023-05-11T09:21:48.539Z,4.10
2023-05-11T09:24:15.154Z,4.60
2023-05-11T09:26:41.918Z,6.10
2023-05-11T09:29:08.575Z,8.70
2023-05-11T09:31:42.916Z,2.90
2023-05-11T09:34:16.688Z,4.90
2023-05-11T09:36:44.416Z,3.70
2023-05-11T09:39:15.386Z,4.90
2023-05-11T09:41:42.726Z,4.00
2023-05-11T09:44:13.775Z,3.40
2023-05-11T09:46:41.729Z,3.40
2023-05-11T09:49:08.812Z,4.20
2023-05-11T09:51:40.687Z,5.90
2023-05-11T09:54:18.511Z,3.40
2023-05-11T09:56:49.039Z,3.80
2023-05-11T09:59:17.538Z,4.10
2023-05-11T10:01:44.351Z,3.00
2023-05-11T10:04:22.090Z,3.40
2023-05-11T10:06:53.888Z,3.20
2023-05-11T10:09:24.448Z,3.20
2023-05-11T10:11:51.085Z,5.00
2023-05-11T10:14:17.829Z,3.70
2023-05-11T10:16:44.556Z,5.60
2023-05-11T10:19:11.680Z,3.90
2023-05-11T10:21:39.882Z,3.70
2023-05-11T10:24:07.669Z,5.50
2023-05-11T10:26:34.446Z,4.30
2023-05-11T10:29:01.412Z,3.40
2023-05-11T10:31:29.124Z,3.60
2023-05-11T10:33:57.246Z,3.10
2023-05-11T10:36:24.307Z,3.30
2023-05-11T10:38:51.412Z,3.40
2023-05-11T10:41:41.441Z,3.60
2023-05-11T10:44:20.305Z,3.50
2023-05-11T10:47:12.142Z,3.40
2023-05-11T10:49:49.404Z,4.70
2023-05-11T10:52:55.835Z,3.60
2023-05-11T10:55:38.657Z,4.50
2023-05-11T10:58:10.895Z,3.40
2023-05-11T11:00:55.916Z,3.70
2023-05-11T11:03:22.629Z,3.30
2023-05-11T11:05:49.286Z,2.90
2023-05-11T11:08:16.110Z,4.50
2023-05-11T11:10:46.537Z,3.00
2023-05-11T11:13:14.050Z,3.20
2023-05-11T11:15:56.756Z,3.50
2023-05-11T11:18:24.219Z,2.90
2023-05-11T11:23:44.923Z,5.20
2023-05-11T11:26:15.326Z,5.10
2023-05-11T11:28:54.417Z,3.60
2023-05-11T11:31:34.436Z,4.10
2023-05-11T11:34:29.477Z,4.70
2023-05-11T11:36:56.087Z,4.60
2023-05-11T11:39:22.881Z,3.40
2023-05-11T11:42:02.868Z,3.80
2023-05-11T11:44:29.662Z,2.90
2023-05-11T11:47:15.689Z,4.50
2023-05-11T11:49:43.959Z,4.10
2023-05-11T11:52:14.589Z,5.30
2023-05-11T11:54:43.856Z,3.90
2023-05-11T11:57:49.507Z,4.10
2023-05-11T12:00:16.407Z,4.20
2023-05-11T12:02:44.186Z,3.90
2023-05-11T12:05:19.016Z,3.90
2023-05-11T12:07:47.206Z,3.00
2023-05-11T12:10:14.348Z,3.00
2023-05-11T12:12:45.106Z,3.30
2023-05-11T12:15:25.925Z,4.60
2023-05-11T12:17:52.603Z,3.00
2023-05-11T12:20:19.849Z,3.70
2023-05-11T12:22:48.933Z,3.60
2023-05-11T12:25:18.101Z,3.70
2023-05-11T12:27:55.465Z,4.10
2023-05-11T12:30:26.734Z,4.60
2023-05-11T12:35:25.235Z,4.20
2023-05-11T12:37:52.037Z,3.10
2023-05-11T12:40:19.022Z,3.40
2023-05-11T12:42:59.299Z,6.60
2023-05-11T12:45:26.626Z,3.20
2023-05-11T12:47:55.734Z,4.20
2023-05-11T12:50:22.541Z,3.30
2023-05-11T12:52:50.422Z,4.30
2023-05-11T12:55:28.538Z,3.20
2023-05-11T12:57:58.415Z,3.70
2023-05-11T13:00:25.606Z,3.20
2023-05-11T13:02:53.700Z,4.00
2023-05-11T13:05:24.957Z,3.00
2023-05-11T13:08:04.853Z,4.50
2023-05-11T13:10:32.222Z,3.50
2023-05-11T13:12:59.495Z,3.80
2023-05-11T13:15:28.513Z,4.80
2023-05-11T13:17:57.155Z,3.30
2023-05-11T13:20:33.514Z,5.50
2023-05-11T13:23:10.114Z,4.50
2023-05-11T13:25:45.955Z,5.30
2023-05-11T13:28:14.481Z,5.00
2023-05-11T13:30:41.592Z,5.60
2023-05-11T13:33:08.333Z,4.10
2023-05-11T13:35:39.187Z,3.40
2023-05-11T13:38:05.860Z,2.60
2023-05-11T13:40:32.531Z,2.60
2023-05-11T13:43:00.405Z,2.60
2023-05-11T13:45:27.369Z,3.30
2023-05-11T13:47:55.461Z,3.90
2023-05-11T13:50:26.188Z,3.00
2023-05-11T13:52:53.305Z,5.00
2023-05-11T13:55:21.108Z,2.60
2023-05-11T13:57:48.340Z,3.00
2023-05-11T14:00:16.050Z,3.10
2023-05-11T14:05:10.287Z,2.50
2023-05-11T14:07:47.171Z,4.40
2023-05-11T14:10:16.350Z,4.80
2023-05-11T14:12:43.294Z,6.60
2023-05-11T14:15:10.372Z,2.90
2023-05-11T14:17:37.229Z,4.70
2023-05-11T14:20:05.311Z,4.10
2023-05-11T14:22:31.977Z,2.70
2023-05-11T14:24:58.666Z,2.90
2023-05-11T14:27:25.297Z,3.30
2023-05-11T14:29:52.330Z,2.80
2023-05-11T14:32:19.506Z,3.80
2023-05-11T14:34:46.835Z,3.40
2023-05-11T14:37:13.486Z,2.90
2023-05-11T14:39:41.072Z,2.80
2023-05-11T14:42:08.416Z,4.80
2023-05-11T14:44:35.178Z,3.10
2023-05-11T14:47:01.875Z,3.60
2023-05-11T14:49:28.878Z,2.80
2023-05-11T14:51:56.712Z,2.40
2023-05-11T14:54:23.496Z,2.70
2023-05-11T14:56:54.172Z,3.00
2023-05-11T14:59:24.432Z,8.00
2023-05-11T15:01:51.099Z,2.80
2023-05-11T15:04:18.715Z,2.70
2023-05-11T15:06:45.410Z,6.90
2023-05-11T15:09:12.136Z,3.40
2023-05-11T15:11:38.743Z,3.50
2023-05-11T15:14:06.409Z,6.00
2023-05-11T15:16:33.085Z,4.60
2023-05-11T15:19:00.023Z,3.70
2023-05-11T15:21:27.270Z,3.70
2023-05-11T15:23:54.448Z,4.60
2023-05-11T15:26:22.384Z,4.50
2023-05-11T15:28:49.087Z,4.20
2023-05-11T15:31:15.956Z,4.50
2023-05-11T15:33:43.116Z,3.60
2023-05-11T15:36:13.856Z,3.80
2023-05-11T15:38:41.177Z,3.00
2023-05-11T15:41:07.946Z,3.60
2023-05-11T15:43:35.164Z,3.40
2023-05-11T15:46:03.681Z,6.80
2023-05-11T15:48:30.568Z,3.50
2023-05-11T15:50:59.205Z,3.60
2023-05-11T15:53:26.066Z,2.70
2023-05-11T15:55:55.555Z,4.50
2023-05-11T15:58:22.942Z,2.70
2023-05-11T16:00:49.837Z,2.30
2023-05-11T16:03:16.984Z,2.60
2023-05-11T16:05:44.745Z,4.40
2023-05-11T16:08:11.443Z,4.00
2023-05-11T16:10:38.464Z,4.80
2023-05-11T16:13:05.312Z,2.70
2023-05-11T16:15:32.115Z,3.70
2023-05-11T16:17:58.919Z,4.20
2023-05-11T16:22:53.749Z,7.10
2023-05-11T16:25:21.058Z,4.00
2023-05-11T16:27:47.664Z,7.30
2023-05-11T16:30:22.393Z,3.70
2023-05-11T16:32:51.596Z,4.10
2023-05-11T16:35:18.446Z,4.10
2023-05-11T16:37:46.806Z,9.50
2023-05-11T16:40:13.605Z,8.90
2023-05-11T16:42:40.206Z,6.20
2023-05-11T16:45:07.483Z,5.90
2023-05-11T16:47:34.199Z,5.10
2023-05-11T16:50:00.984Z,3.60
2023-05-11T16:52:27.723Z,6.60
2023-05-11T16:54:55.320Z,7.50
2023-05-11T16:57:25.225Z,8.50
2023-05-11T16:59:52.098Z,107.40
2023-05-11T17:02:20.022Z,86.80
2023-05-11T17:06:04.040Z,67.60
2023-05-11T17:08:30.670Z,69.90
2023-05-11T17:10:57.231Z,45.70
2023-05-11T17:13:23.971Z,23.30
2023-05-11T17:15:51.655Z,16.00
2023-05-11T17:18:18.351Z,12.10
2023-05-11T17:20:45.096Z,7.70
2023-05-11T17:23:11.746Z,7.00
2023-05-11T17:25:38.387Z,4.90
2023-05-11T17:28:05.150Z,4.90
2023-05-11T17:30:47.334Z,6.30
2023-05-11T17:33:14.606Z,9.90
2023-05-11T17:35:41.422Z,17.60
2023-05-11T17:38:08.007Z,133.70
2023-05-11T17:40:34.754Z,133.20
2023-05-11T17:43:01.868Z,90.40
2023-05-11T17:45:29.141Z,74.50
2023-05-11T17:47:55.954Z,73.00
2023-05-11T17:50:23.477Z,61.90
2023-05-11T17:52:51.168Z,47.30
2023-05-11T17:55:18.522Z,35.10
2023-05-11T17:57:45.414Z,26.60
2023-05-11T18:00:13.117Z,18.70
2023-05-11T18:02:39.984Z,14.70
2023-05-11T18:05:07.222Z,10.70
2023-05-11T18:07:33.953Z,9.40
2023-05-11T18:10:00.580Z,11.20
2023-05-11T18:12:27.408Z,7.60
2023-05-11T18:14:54.042Z,10.60
2023-05-11T18:17:20.962Z,11.70
2023-05-11T18:19:47.554Z,12.50
2023-05-11T18:22:14.157Z,17.90
2023-05-11T18:24:40.841Z,16.80
2023-05-11T18:27:07.461Z,16.40
2023-05-11T18:29:34.042Z,16.40
2023-05-11T18:32:56.192Z,14.30
2023-05-11T18:35:22.912Z,19.50
2023-05-11T18:37:49.837Z,14.40
2023-05-11T18:40:16.983Z,14.60
2023-05-11T18:42:44.427Z,15.40
2023-05-11T18:45:11.247Z,11.90
2023-05-11T18:47:38.218Z,13.50
2023-05-11T18:50:05.958Z,11.40
2023-05-11T18:52:32.701Z,14.40
2023-05-11T18:54:59.486Z,12.80
2023-05-11T18:57:26.086Z,13.70
2023-05-11T18:59:52.870Z,11.50
2023-05-11T19:02:19.761Z,12.80
2023-05-11T19:07:13.180Z,10.90
2023-05-11T19:09:39.948Z,12.80
2023-05-11T19:12:07.383Z,14.00
2023-05-11T19:14:34.917Z,15.30
2023-05-11T19:17:02.351Z,10.90
2023-05-11T19:19:29.306Z,15.70
2023-05-11T19:21:55.964Z,10.90
2023-05-11T19:24:22.741Z,8.10
2023-05-11T19:26:58.914Z,10.80
2023-05-11T19:29:33.064Z,9.30
2023-05-11T19:31:59.753Z,12.30
2023-05-11T19:34:26.482Z,12.40
2023-05-11T19:36:53.078Z,14.90
2023-05-11T19:39:19.750Z,10.50
2023-05-11T19:41:46.424Z,8.90
2023-05-11T19:44:13.041Z,11.20
2023-05-11T19:46:45.830Z,13.60
2023-05-11T19:49:13.836Z,10.40
2023-05-11T19:51:40.543Z,13.50
2023-05-11T19:54:07.206Z,9.00
2023-05-11T19:56:34.009Z,7.80
2023-05-11T19:59:01.295Z,18.00
2023-05-11T20:01:28.300Z,10.80
2023-05-11T20:03:55.512Z,12.90
2023-05-11T20:06:22.559Z,11.70
2023-05-11T20:08:49.136Z,13.80
2023-05-11T20:11:15.764Z,11.50
2023-05-11T20:13:43.998Z,11.40
2023-05-11T20:16:10.868Z,13.80
2023-05-11T20:18:37.605Z,11.90
2023-05-11T20:21:04.383Z,8.60
2023-05-11T20:23:31.071Z,12.00
2023-05-11T20:25:57.681Z,13.90
2023-05-11T20:28:27.310Z,14.00
2023-05-11T20:30:57.195Z,14.00
2023-05-11T20:35:53.751Z,20.00
2023-05-11T20:38:20.633Z,18.50
2023-05-11T20:40:47.241Z,19.60
2023-05-11T20:43:14.934Z,18.60
2023-05-11T20:45:42.331Z,23.70
2023-05-11T20:48:09.151Z,19.40
2023-05-11T20:50:35.943Z,16.60
2023-05-11T20:53:02.604Z,15.10
2023-05-11T20:55:29.203Z,19.90
2023-05-11T20:57:55.819Z,15.80
2023-05-11T21:00:23.104Z,14.90
2023-05-11T21:05:17.040Z,11.90
2023-05-11T21:09:30.729Z,16.70
2023-05-11T21:11:57.380Z,20.30
2023-05-11T21:14:23.970Z,16.00
2023-05-11T21:16:50.630Z,19.60
2023-05-11T21:19:18.490Z,15.20
2023-05-11T21:21:45.192Z,17.20
2023-05-11T21:24:13.989Z,16.10
2023-05-11T21:26:40.823Z,16.80
2023-05-11T21:29:07.438Z,14.20
2023-05-11T21:31:34.081Z,16.40
2023-05-11T21:34:00.781Z,17.20
2023-05-11T21:36:28.337Z,16.70
2023-05-11T21:41:22.563Z,19.20
2023-05-11T21:43:49.233Z,19.50
2023-05-11T21:46:15.967Z,22.70
2023-05-11T21:48:42.950Z,25.30
2023-05-11T21:51:09.555Z,20.00
2023-05-11T21:53:36.206Z,18.10
2023-05-11T21:56:02.955Z,16.00
2023-05-11T21:58:29.565Z,20.80
2023-05-11T22:00:57.367Z,16.60
2023-05-11T22:03:24.290Z,19.00
2023-05-11T22:05:51.256Z,22.20
2023-05-11T22:08:18.026Z,20.10
2023-05-11T22:10:44.757Z,20.50
2023-05-11T22:13:11.368Z,19.80
2023-05-11T22:15:38.409Z,20.90
2023-05-11T22:18:05.208Z,20.60
2023-05-11T22:20:32.027Z,24.50
2023-05-11T22:22:59.431Z,20.60
2023-05-11T22:25:27.741Z,27.10
2023-05-11T22:27:54.514Z,25.50
2023-05-11T22:30:21.256Z,25.80
2023-05-11T22:32:48.285Z,22.20
2023-05-11T22:35:15.164Z,23.40
2023-05-11T22:37:41.863Z,24.40
2023-05-11T22:40:09.628Z,19.30
2023-05-11T22:42:36.233Z,23.30
2023-05-11T22:45:02.869Z,21.70
2023-05-11T22:47:29.614Z,26.40
2023-05-11T22:49:56.419Z,19.40
2023-05-11T22:52:23.061Z,21.70
2023-05-11T22:54:54.693Z,19.90
2023-05-11T22:57:24.061Z,23.50
2023-05-11T22:59:50.816Z,22.00
2023-05-11T23:02:17.512Z,21.70
2023-05-11T23:04:44.553Z,22.30
2023-05-11T23:07:13.082Z,20.60
2023-05-11T23:09:40.037Z,21.70
2023-05-11T23:12:07.629Z,22.30
2023-05-11T23:17:00.834Z,20.90
2023-05-11T23:19:27.444Z,23.20
2023-05-11T23:21:54.062Z,21.50
2023-05-11T23:24:21.296Z,23.20
2023-05-11T23:26:47.879Z,22.20
2023-05-11T23:29:14.665Z,24.90
2023-05-11T23:31:41.361Z,21.80
2023-05-11T23:34:08.665Z,22.40
2023-05-11T23:36:35.291Z,20.50
2023-05-11T23:39:01.929Z,21.20
2023-05-11T23:41:28.533Z,20.60
2023-05-11T23:43:55.124Z,23.80
2023-05-11T23:46:21.780Z,21.00
2023-05-11T23:48:48.707Z,19.70
2023-05-11T23:51:16.542Z,20.80
2023-05-11T23:53:43.143Z,21.00
2023-05-11T23:56:09.942Z,23.90
2023-05-11T23:58:36.610Z,24.00
